Aviation Digital Data Service (ADDS)

Output produced by METARs form (0506 UTC 21 January 2019)
found at http://www.aviationweather.gov/metar/data/
 
METAR text: EGLL 210450Z AUTO VRB03KT 3800 BR BKN010 M01/M02 Q1024 TEMPO BKN009
Conditions at: EGLL (LONDON/HEATHROW , GB) observed 0450 UTC 21 January 2019
Temperature: -1.0°C (30°F)
Dewpoint: -2.0°C (28°F) [RH = 93%]
Pressure (altimeter): 30.24 inches Hg (1024.0 mb)
Winds: variable direction winds at 3 MPH (3 knots; 1.5 m/s)
Visibility: 2.36 miles (3.80 km)
Ceiling: 1000 feet AGL
Clouds: broken clouds at 1000 feet AGL
Weather: BR  (mist)

METAR text: EGLL 210420Z AUTO 16003KT 3800 BR BKN010 M02/M02 Q1024
Conditions at: EGLL (LONDON/HEATHROW , GB) observed 0420 UTC 21 January 2019
Temperature: -2.0°C (28°F)
Dewpoint: -2.0°C (28°F) [RH = 100%]
Pressure (altimeter): 30.24 inches Hg (1024.0 mb)
Winds: from the SSE (160 degrees) at 3 MPH (3 knots; 1.5 m/s)
Visibility: 2.36 miles (3.80 km)
Ceiling: 1000 feet AGL
Clouds: broken clouds at 1000 feet AGL
Weather: BR  (mist)

METAR text: EGLL 210350Z AUTO 18002KT 4100 HZ BKN013 M01/M02 Q1024 NOSIG
Conditions at: EGLL (LONDON/HEATHROW , GB) observed 0350 UTC 21 January 2019
Temperature: -1.0°C (30°F)
Dewpoint: -2.0°C (28°F) [RH = 93%]
Pressure (altimeter): 30.24 inches Hg (1024.0 mb)
Winds: from the S (180 degrees) at 2 MPH (2 knots; 1.0 m/s)
Visibility: 2.55 miles (4.10 km)
Ceiling: 1300 feet AGL
Clouds: broken clouds at 1300 feet AGL
Weather: HZ  (haze)

METAR text: EGLL 210320Z AUTO 33001KT 5000 HZ BKN012 M01/M02 Q1024 TEMPO 4000 SCT012
Conditions at: EGLL (LONDON/HEATHROW , GB) observed 0320 UTC 21 January 2019
Temperature: -1.0°C (30°F)
Dewpoint: -2.0°C (28°F) [RH = 93%]
Pressure (altimeter): 30.24 inches Hg (1024.0 mb)
Winds: from the NNW (330 degrees) at 1 MPH (1 knots; 0.5 m/s)
Visibility: 3 miles ( 5 km)
Ceiling: 1200 feet AGL
Clouds: broken clouds at 1200 feet AGL
Weather: HZ  (haze)

METAR text: EGLL 210250Z AUTO 10001KT 4200 HZ BKN012 BKN034 M01/M02 Q1025 TEMPO SCT012
Conditions at: EGLL (LONDON/HEATHROW , GB) observed 0250 UTC 21 January 2019
Temperature: -1.0°C (30°F)
Dewpoint: -2.0°C (28°F) [RH = 93%]
Pressure (altimeter): 30.27 inches Hg (1025.0 mb)
Winds: from the E (100 degrees) at 1 MPH (1 knots; 0.5 m/s)
Visibility: 2.61 miles (4.20 km)
Ceiling: 1200 feet AGL
Clouds: broken clouds at 1200 feet AGL
broken clouds at 3400 feet AGL
Weather: HZ  (haze)

METAR text: EGLL 210220Z AUTO VRB01KT 4500 HZ BKN013 BKN035 M02/M03 Q1025 TEMPO 5000 SCT013
Conditions at: EGLL (LONDON/HEATHROW , GB) observed 0220 UTC 21 January 2019
Temperature: -2.0°C (28°F)
Dewpoint: -3.0°C (27°F) [RH = 93%]
Pressure (altimeter): 30.27 inches Hg (1025.0 mb)
Winds: variable direction winds at 1 MPH (1 knots; 0.5 m/s)
Visibility: 2.80 miles (4.51 km)
Ceiling: 1300 feet AGL
Clouds: broken clouds at 1300 feet AGL
broken clouds at 3500 feet AGL
Weather: HZ  (haze)

METAR text: EGLL 210150Z AUTO VRB02KT 2800 HZ FEW014 SCT034 M02/M03 Q1025 TEMPO 5000
Conditions at: EGLL (LONDON/HEATHROW , GB) observed 0150 UTC 21 January 2019
Temperature: -2.0°C (28°F)
Dewpoint: -3.0°C (27°F) [RH = 93%]
Pressure (altimeter): 30.27 inches Hg (1025.0 mb)
Winds: variable direction winds at 2 MPH (2 knots; 1.0 m/s)
Visibility: 1.74 miles (2.80 km)
Ceiling: at least 12,000 feet AGL
Clouds: few clouds at 1400 feet AGL
scattered clouds at 3400 feet AGL
Weather: HZ  (haze)

METAR text: EGLL 210120Z AUTO 28001KT 4300 HZ NCD M01/M02 Q1024 TEMPO 5000
Conditions at: EGLL (LONDON/HEATHROW , GB) observed 0120 UTC 21 January 2019
Temperature: -1.0°C (30°F)
Dewpoint: -2.0°C (28°F) [RH = 93%]
Pressure (altimeter): 30.24 inches Hg (1024.0 mb)
Winds: from the W (280 degrees) at 1 MPH (1 knots; 0.5 m/s)
Visibility: 2.67 miles (4.30 km)
Ceiling: at least 12,000 feet AGL
Clouds: sky clear below 12,000 feet AGL
Weather: HZ  (haze)

METAR text: EGLL 210050Z AUTO 28001KT 3900 HZ NCD M02/M03 Q1024 NOSIG
Conditions at: EGLL (LONDON/HEATHROW , GB) observed 0050 UTC 21 January 2019
Temperature: -2.0°C (28°F)
Dewpoint: -3.0°C (27°F) [RH = 93%]
Pressure (altimeter): 30.24 inches Hg (1024.0 mb)
Winds: from the W (280 degrees) at 1 MPH (1 knots; 0.5 m/s)
Visibility: 2.42 miles (3.89 km)
Ceiling: at least 12,000 feet AGL
Clouds: sky clear below 12,000 feet AGL
Weather: HZ  (haze)

METAR text: EGLL 210020Z AUTO VRB01KT 4500 HZ NCD M01/M02 Q1024 NOSIG
Conditions at: EGLL (LONDON/HEATHROW , GB) observed 0020 UTC 21 January 2019
Temperature: -1.0°C (30°F)
Dewpoint: -2.0°C (28°F) [RH = 93%]
Pressure (altimeter): 30.24 inches Hg (1024.0 mb)
Winds: variable direction winds at 1 MPH (1 knots; 0.5 m/s)
Visibility: 2.80 miles (4.51 km)
Ceiling: at least 12,000 feet AGL
Clouds: sky clear below 12,000 feet AGL
Weather: HZ  (haze)

METAR text: EGLL 202350Z AUTO 35001KT 6000 FEW035 M00/M02 Q1024 BECMG 5000 HZ
Conditions at: EGLL (LONDON/HEATHROW , GB) observed 2350 UTC 20 January 2019
Temperature: 0.0°C (32°F)
Dewpoint: -2.0°C (28°F) [RH = 86%]
Pressure (altimeter): 30.24 inches Hg (1024.0 mb)
Winds: from the N (350 degrees) at 1 MPH (1 knots; 0.5 m/s)
Visibility: 4 miles ( 6 km)
Ceiling: at least 12,000 feet AGL
Clouds: few clouds at 3500 feet AGL
Weather: no significant weather observed at this time

METAR text: EGLL 202320Z AUTO VRB02KT 6000 FEW035 00/M02 Q1024 NOSIG
Conditions at: EGLL (LONDON/HEATHROW , GB) observed 2320 UTC 20 January 2019
Temperature: 0.0°C (32°F)
Dewpoint: -2.0°C (28°F) [RH = 86%]
Pressure (altimeter): 30.24 inches Hg (1024.0 mb)
Winds: variable direction winds at 2 MPH (2 knots; 1.0 m/s)
Visibility: 4 miles ( 6 km)
Ceiling: at least 12,000 feet AGL
Clouds: few clouds at 3500 feet AGL
Weather: no significant weather observed at this time

METAR text: EGLL 202250Z AUTO 02002KT 7000 BKN035 00/M02 Q1024
Conditions at: EGLL (LONDON/HEATHROW , GB) observed 2250 UTC 20 January 2019
Temperature: 0.0°C (32°F)
Dewpoint: -2.0°C (28°F) [RH = 86%]
Pressure (altimeter): 30.24 inches Hg (1024.0 mb)
Winds: from the NNE (20 degrees) at 2 MPH (2 knots; 1.0 m/s)
Visibility: 4 miles ( 7 km)
Ceiling: 3500 feet AGL
Clouds: broken clouds at 3500 feet AGL
Weather: no significant weather observed at this time

METAR text: EGLL 202220Z AUTO VRB02KT 7000 BKN035 01/M01 Q1024 NOSIG
Conditions at: EGLL (LONDON/HEATHROW , GB) observed 2220 UTC 20 January 2019
Temperature: 1.0°C (34°F)
Dewpoint: -1.0°C (30°F) [RH = 86%]
Pressure (altimeter): 30.24 inches Hg (1024.0 mb)
Winds: variable direction winds at 2 MPH (2 knots; 1.0 m/s)
Visibility: 4 miles ( 7 km)
Ceiling: 3500 feet AGL
Clouds: broken clouds at 3500 feet AGL
Weather: no significant weather observed at this time

METAR text: EGLL 202150Z AUTO 35003KT 6000 FEW035 01/M02 Q1024 NOSIG
Conditions at: EGLL (LONDON/HEATHROW , GB) observed 2150 UTC 20 January 2019
Temperature: 1.0°C (34°F)
Dewpoint: -2.0°C (28°F) [RH = 80%]
Pressure (altimeter): 30.24 inches Hg (1024.0 mb)
Winds: from the N (350 degrees) at 3 MPH (3 knots; 1.5 m/s)
Visibility: 4 miles ( 6 km)
Ceiling: at least 12,000 feet AGL
Clouds: few clouds at 3500 feet AGL
Weather: no significant weather observed at this time

METAR text: EGLL 202120Z AUTO 33003KT 7000 BKN029 BKN035 01/M01 Q1023 NOSIG
Conditions at: EGLL (LONDON/HEATHROW , GB) observed 2120 UTC 20 January 2019
Temperature: 1.0°C (34°F)
Dewpoint: -1.0°C (30°F) [RH = 86%]
Pressure (altimeter): 30.21 inches Hg (1023.0 mb)
Winds: from the NNW (330 degrees) at 3 MPH (3 knots; 1.5 m/s)
Visibility: 4 miles ( 7 km)
Ceiling: 2900 feet AGL
Clouds: broken clouds at 2900 feet AGL
broken clouds at 3500 feet AGL
Weather: no significant weather observed at this time

METAR text: EGLL 202050Z AUTO 33003KT 7000 NCD 02/M01 Q1023 NOSIG
Conditions at: EGLL (LONDON/HEATHROW , GB) observed 2050 UTC 20 January 2019
Temperature: 2.0°C (36°F)
Dewpoint: -1.0°C (30°F) [RH = 80%]
Pressure (altimeter): 30.21 inches Hg (1023.0 mb)
Winds: from the NNW (330 degrees) at 3 MPH (3 knots; 1.5 m/s)
Visibility: 4 miles ( 7 km)
Ceiling: at least 12,000 feet AGL
Clouds: sky clear below 12,000 feet AGL
Weather: no significant weather observed at this time

METAR text: EGLL 202020Z AUTO 33003KT 8000 NCD 01/M02 Q1023
Conditions at: EGLL (LONDON/HEATHROW , GB) observed 2020 UTC 20 January 2019
Temperature: 1.0°C (34°F)
Dewpoint: -2.0°C (28°F) [RH = 80%]
Pressure (altimeter): 30.21 inches Hg (1023.0 mb)
Winds: from the NNW (330 degrees) at 3 MPH (3 knots; 1.5 m/s)
Visibility: 5 miles ( 8 km)
Ceiling: at least 12,000 feet AGL
Clouds: sky clear below 12,000 feet AGL
Weather: no significant weather observed at this time

METAR text: EGLL 201950Z AUTO 04001KT 9000 NCD 02/M01 Q1023 NOSIG
Conditions at: EGLL (LONDON/HEATHROW , GB) observed 1950 UTC 20 January 2019
Temperature: 2.0°C (36°F)
Dewpoint: -1.0°C (30°F) [RH = 80%]
Pressure (altimeter): 30.21 inches Hg (1023.0 mb)
Winds: from the NE (40 degrees) at 1 MPH (1 knots; 0.5 m/s)
Visibility: 6 miles ( 9 km)
Ceiling: at least 12,000 feet AGL
Clouds: sky clear below 12,000 feet AGL
Weather: no significant weather observed at this time

METAR text: EGLL 201920Z AUTO VRB02KT 9999 NCD 01/M01 Q1022 NOSIG
Conditions at: EGLL (LONDON/HEATHROW , GB) observed 1920 UTC 20 January 2019
Temperature: 1.0°C (34°F)
Dewpoint: -1.0°C (30°F) [RH = 86%]
Pressure (altimeter): 30.18 inches Hg (1022.0 mb)
Winds: variable direction winds at 2 MPH (2 knots; 1.0 m/s)
Visibility: 6 or more miles (10+ km)
Ceiling: at least 12,000 feet AGL
Clouds: sky clear below 12,000 feet AGL
Weather: no significant weather observed at this time

METAR text: EGLL 201850Z AUTO 36002KT 9999 NCD 02/M01 Q1022 NOSIG
Conditions at: EGLL (LONDON/HEATHROW , GB) observed 1850 UTC 20 January 2019
Temperature: 2.0°C (36°F)
Dewpoint: -1.0°C (30°F) [RH = 80%]
Pressure (altimeter): 30.18 inches Hg (1022.0 mb)
Winds: from the N (360 degrees) at 2 MPH (2 knots; 1.0 m/s)
Visibility: 6 or more miles (10+ km)
Ceiling: at least 12,000 feet AGL
Clouds: sky clear below 12,000 feet AGL
Weather: no significant weather observed at this time

METAR text: EGLL 201820Z AUTO 01003KT 9999 NCD 01/M02 Q1022 NOSIG
Conditions at: EGLL (LONDON/HEATHROW , GB) observed 1820 UTC 20 January 2019
Temperature: 1.0°C (34°F)
Dewpoint: -2.0°C (28°F) [RH = 80%]
Pressure (altimeter): 30.18 inches Hg (1022.0 mb)
Winds: from the N (10 degrees) at 3 MPH (3 knots; 1.5 m/s)
Visibility: 6 or more miles (10+ km)
Ceiling: at least 12,000 feet AGL
Clouds: sky clear below 12,000 feet AGL
Weather: no significant weather observed at this time

METAR text: EGLL 201750Z AUTO 04003KT 9999 NCD 02/M01 Q1021 NOSIG
Conditions at: EGLL (LONDON/HEATHROW , GB) observed 1750 UTC 20 January 2019
Temperature: 2.0°C (36°F)
Dewpoint: -1.0°C (30°F) [RH = 80%]
Pressure (altimeter): 30.15 inches Hg (1021.0 mb)
Winds: from the NE (40 degrees) at 3 MPH (3 knots; 1.5 m/s)
Visibility: 6 or more miles (10+ km)
Ceiling: at least 12,000 feet AGL
Clouds: sky clear below 12,000 feet AGL
Weather: no significant weather observed at this time

METAR text: EGLL 201720Z AUTO VRB03KT 9999 NCD 02/M02 Q1021 NOSIG
Conditions at: EGLL (LONDON/HEATHROW , GB) observed 1720 UTC 20 January 2019
Temperature: 2.0°C (36°F)
Dewpoint: -2.0°C (28°F) [RH = 75%]
Pressure (altimeter): 30.15 inches Hg (1021.0 mb)
Winds: variable direction winds at 3 MPH (3 knots; 1.5 m/s)
Visibility: 6 or more miles (10+ km)
Ceiling: at least 12,000 feet AGL
Clouds: sky clear below 12,000 feet AGL
Weather: no significant weather observed at this time

METAR text: EGLL 201650Z AUTO VRB03KT 9999 NCD 03/M02 Q1021 NOSIG
Conditions at: EGLL (LONDON/HEATHROW , GB) observed 1650 UTC 20 January 2019
Temperature: 3.0°C (37°F)
Dewpoint: -2.0°C (28°F) [RH = 70%]
Pressure (altimeter): 30.15 inches Hg (1021.0 mb)
Winds: variable direction winds at 3 MPH (3 knots; 1.5 m/s)
Visibility: 6 or more miles (10+ km)
Ceiling: at least 12,000 feet AGL
Clouds: sky clear below 12,000 feet AGL
Weather: no significant weather observed at this time

METAR text: EGLL 201620Z AUTO 01004KT 340V050 9999 NCD 04/M02 Q1020
Conditions at: EGLL (LONDON/HEATHROW , GB) observed 1620 UTC 20 January 2019
Temperature: 4.0°C (39°F)
Dewpoint: -2.0°C (28°F) [RH = 65%]
Pressure (altimeter): 30.12 inches Hg (1020.0 mb)
Winds: from the N (10 degrees) at 5 MPH (4 knots; 2.1 m/s)
Visibility: 6 or more miles (10+ km)
Ceiling: at least 12,000 feet AGL
Clouds: sky clear below 12,000 feet AGL
Weather: no significant weather observed at this time

METAR text: EGLL 201550Z AUTO 35005KT 320V050 9999 NCD 05/M02 Q1020 NOSIG
Conditions at: EGLL (LONDON/HEATHROW , GB) observed 1550 UTC 20 January 2019
Temperature: 5.0°C (41°F)
Dewpoint: -2.0°C (28°F) [RH = 60%]
Pressure (altimeter): 30.12 inches Hg (1020.0 mb)
Winds: from the N (350 degrees) at 6 MPH (5 knots; 2.6 m/s)
Visibility: 6 or more miles (10+ km)
Ceiling: at least 12,000 feet AGL
Clouds: sky clear below 12,000 feet AGL
Weather: no significant weather observed at this time

METAR text: EGLL 201520Z AUTO 36005KT 320V030 9999 NCD 05/M02 Q1019 NOSIG
Conditions at: EGLL (LONDON/HEATHROW , GB) observed 1520 UTC 20 January 2019
Temperature: 5.0°C (41°F)
Dewpoint: -2.0°C (28°F) [RH = 60%]
Pressure (altimeter): 30.09 inches Hg (1019.0 mb)
Winds: from the N (360 degrees) at 6 MPH (5 knots; 2.6 m/s)
Visibility: 6 or more miles (10+ km)
Ceiling: at least 12,000 feet AGL
Clouds: sky clear below 12,000 feet AGL
Weather: no significant weather observed at this time

METAR text: EGLL 201450Z AUTO 35005KT 290V040 9999 NCD 05/M02 Q1019 NOSIG
Conditions at: EGLL (LONDON/HEATHROW , GB) observed 1450 UTC 20 January 2019
Temperature: 5.0°C (41°F)
Dewpoint: -2.0°C (28°F) [RH = 60%]
Pressure (altimeter): 30.09 inches Hg (1019.0 mb)
Winds: from the N (350 degrees) at 6 MPH (5 knots; 2.6 m/s)
Visibility: 6 or more miles (10+ km)
Ceiling: at least 12,000 feet AGL
Clouds: sky clear below 12,000 feet AGL
Weather: no significant weather observed at this time

METAR text: EGLL 201420Z AUTO 03006KT 310V070 9999 NCD 05/M02 Q1019 NOSIG
Conditions at: EGLL (LONDON/HEATHROW , GB) observed 1420 UTC 20 January 2019
Temperature: 5.0°C (41°F)
Dewpoint: -2.0°C (28°F) [RH = 60%]
Pressure (altimeter): 30.09 inches Hg (1019.0 mb)
Winds: from the NNE (30 degrees) at 7 MPH (6 knots; 3.1 m/s)
Visibility: 6 or more miles (10+ km)
Ceiling: at least 12,000 feet AGL
Clouds: sky clear below 12,000 feet AGL
Weather: no significant weather observed at this time

METAR text: EGLL 201350Z AUTO VRB03KT 9999 NCD 05/M01 Q1019 NOSIG
Conditions at: EGLL (LONDON/HEATHROW , GB) observed 1350 UTC 20 January 2019
Temperature: 5.0°C (41°F)
Dewpoint: -1.0°C (30°F) [RH = 65%]
Pressure (altimeter): 30.09 inches Hg (1019.0 mb)
Winds: variable direction winds at 3 MPH (3 knots; 1.5 m/s)
Visibility: 6 or more miles (10+ km)
Ceiling: at least 12,000 feet AGL
Clouds: sky clear below 12,000 feet AGL
Weather: no significant weather observed at this time

METAR text: EGLL 201320Z AUTO 03004KT 350V080 9999 NCD 05/M01 Q1019 NOSIG
Conditions at: EGLL (LONDON/HEATHROW , GB) observed 1320 UTC 20 January 2019
Temperature: 5.0°C (41°F)
Dewpoint: -1.0°C (30°F) [RH = 65%]
Pressure (altimeter): 30.09 inches Hg (1019.0 mb)
Winds: from the NNE (30 degrees) at 5 MPH (4 knots; 2.1 m/s)
Visibility: 6 or more miles (10+ km)
Ceiling: at least 12,000 feet AGL
Clouds: sky clear below 12,000 feet AGL
Weather: no significant weather observed at this time

METAR text: EGLL 201250Z AUTO 05004KT 340V100 9999 NCD 05/M00 Q1019 NOSIG
Conditions at: EGLL (LONDON/HEATHROW , GB) observed 1250 UTC 20 January 2019
Temperature: 5.0°C (41°F)
Dewpoint: 0.0°C (32°F) [RH = 70%]
Pressure (altimeter): 30.09 inches Hg (1019.0 mb)
Winds: from the NE (50 degrees) at 5 MPH (4 knots; 2.1 m/s)
Visibility: 6 or more miles (10+ km)
Ceiling: at least 12,000 feet AGL
Clouds: sky clear below 12,000 feet AGL
Weather: no significant weather observed at this time

METAR text: EGLL 201220Z AUTO 06004KT 020V100 9999 NCD 05/M00 Q1018 NOSIG
Conditions at: EGLL (LONDON/HEATHROW , GB) observed 1220 UTC 20 January 2019
Temperature: 5.0°C (41°F)
Dewpoint: 0.0°C (32°F) [RH = 70%]
Pressure (altimeter): 30.06 inches Hg (1018.0 mb)
Winds: from the ENE (60 degrees) at 5 MPH (4 knots; 2.1 m/s)
Visibility: 6 or more miles (10+ km)
Ceiling: at least 12,000 feet AGL
Clouds: sky clear below 12,000 feet AGL
Weather: no significant weather observed at this time

METAR text: EGLL 201150Z AUTO 02004KT 320V090 9999 NCD 04/00 Q1018 NOSIG
Conditions at: EGLL (LONDON/HEATHROW , GB) observed 1150 UTC 20 January 2019
Temperature: 4.0°C (39°F)
Dewpoint: 0.0°C (32°F) [RH = 75%]
Pressure (altimeter): 30.06 inches Hg (1018.0 mb)
Winds: from the NNE (20 degrees) at 5 MPH (4 knots; 2.1 m/s)
Visibility: 6 or more miles (10+ km)
Ceiling: at least 12,000 feet AGL
Clouds: sky clear below 12,000 feet AGL
Weather: no significant weather observed at this time

METAR text: EGLL 201120Z AUTO VRB03KT 9999 NCD 04/00 Q1018 NOSIG
Conditions at: EGLL (LONDON/HEATHROW , GB) observed 1120 UTC 20 January 2019
Temperature: 4.0°C (39°F)
Dewpoint: 0.0°C (32°F) [RH = 75%]
Pressure (altimeter): 30.06 inches Hg (1018.0 mb)
Winds: variable direction winds at 3 MPH (3 knots; 1.5 m/s)
Visibility: 6 or more miles (10+ km)
Ceiling: at least 12,000 feet AGL
Clouds: sky clear below 12,000 feet AGL
Weather: no significant weather observed at this time

METAR text: EGLL 201050Z AUTO VRB02KT 9999 NCD 03/00 Q1018 NOSIG
Conditions at: EGLL (LONDON/HEATHROW , GB) observed 1050 UTC 20 January 2019
Temperature: 3.0°C (37°F)
Dewpoint: 0.0°C (32°F) [RH = 81%]
Pressure (altimeter): 30.06 inches Hg (1018.0 mb)
Winds: variable direction winds at 2 MPH (2 knots; 1.0 m/s)
Visibility: 6 or more miles (10+ km)
Ceiling: at least 12,000 feet AGL
Clouds: sky clear below 12,000 feet AGL
Weather: no significant weather observed at this time

METAR text: EGLL 201020Z AUTO 35004KT 320V030 9000 NCD 02/M00 Q1018 NOSIG
Conditions at: EGLL (LONDON/HEATHROW , GB) observed 1020 UTC 20 January 2019
Temperature: 2.0°C (36°F)
Dewpoint: 0.0°C (32°F) [RH = 87%]
Pressure (altimeter): 30.06 inches Hg (1018.0 mb)
Winds: from the N (350 degrees) at 5 MPH (4 knots; 2.1 m/s)
Visibility: 6 miles ( 9 km)
Ceiling: at least 12,000 feet AGL
Clouds: sky clear below 12,000 feet AGL
Weather: no significant weather observed at this time

METAR text: EGLL 200950Z AUTO VRB03KT 9000 BKN023 02/M00 Q1017 NOSIG
Conditions at: EGLL (LONDON/HEATHROW , GB) observed 0950 UTC 20 January 2019
Temperature: 2.0°C (36°F)
Dewpoint: 0.0°C (32°F) [RH = 87%]
Pressure (altimeter): 30.03 inches Hg (1017.0 mb)
Winds: variable direction winds at 3 MPH (3 knots; 1.5 m/s)
Visibility: 6 miles ( 9 km)
Ceiling: 2300 feet AGL
Clouds: broken clouds at 2300 feet AGL
Weather: no significant weather observed at this time

METAR text: EGLL 200920Z AUTO 34003KT 8000 BKN023 02/M00 Q1017 NOSIG
Conditions at: EGLL (LONDON/HEATHROW , GB) observed 0920 UTC 20 January 2019
Temperature: 2.0°C (36°F)
Dewpoint: 0.0°C (32°F) [RH = 87%]
Pressure (altimeter): 30.03 inches Hg (1017.0 mb)
Winds: from the NNW (340 degrees) at 3 MPH (3 knots; 1.5 m/s)
Visibility: 5 miles ( 8 km)
Ceiling: 2300 feet AGL
Clouds: broken clouds at 2300 feet AGL
Weather: no significant weather observed at this time

METAR text: EGLL 200850Z AUTO 35003KT 9000 OVC021 02/M00 Q1016 NOSIG
Conditions at: EGLL (LONDON/HEATHROW , GB) observed 0850 UTC 20 January 2019
Temperature: 2.0°C (36°F)
Dewpoint: 0.0°C (32°F) [RH = 87%]
Pressure (altimeter): 30.00 inches Hg (1016.0 mb)
Winds: from the N (350 degrees) at 3 MPH (3 knots; 1.5 m/s)
Visibility: 6 miles ( 9 km)
Ceiling: 2100 feet AGL
Clouds: overcast cloud deck at 2100 feet AGL
Weather: no significant weather observed at this time

METAR text: EGLL 200820Z AUTO VRB02KT 9999 OVC020 02/M01 Q1016 NOSIG
Conditions at: EGLL (LONDON/HEATHROW , GB) observed 0820 UTC 20 January 2019
Temperature: 2.0°C (36°F)
Dewpoint: -1.0°C (30°F) [RH = 80%]
Pressure (altimeter): 30.00 inches Hg (1016.0 mb)
Winds: variable direction winds at 2 MPH (2 knots; 1.0 m/s)
Visibility: 6 or more miles (10+ km)
Ceiling: 2000 feet AGL
Clouds: overcast cloud deck at 2000 feet AGL
Weather: no significant weather observed at this time

METAR text: EGLL 200750Z AUTO 05002KT 9999 OVC019 01/M00 Q1015 NOSIG
Conditions at: EGLL (LONDON/HEATHROW , GB) observed 0750 UTC 20 January 2019
Temperature: 1.0°C (34°F)
Dewpoint: 0.0°C (32°F) [RH = 93%]
Pressure (altimeter): 29.97 inches Hg (1015.0 mb)
Winds: from the NE (50 degrees) at 2 MPH (2 knots; 1.0 m/s)
Visibility: 6 or more miles (10+ km)
Ceiling: 1900 feet AGL
Clouds: overcast cloud deck at 1900 feet AGL
Weather: no significant weather observed at this time

METAR text: EGLL 200720Z AUTO VRB01KT 9999 BKN016 OVC022 01/M00 Q1015 NOSIG
Conditions at: EGLL (LONDON/HEATHROW , GB) observed 0720 UTC 20 January 2019
Temperature: 1.0°C (34°F)
Dewpoint: 0.0°C (32°F) [RH = 93%]
Pressure (altimeter): 29.97 inches Hg (1015.0 mb)
Winds: variable direction winds at 1 MPH (1 knots; 0.5 m/s)
Visibility: 6 or more miles (10+ km)
Ceiling: 1600 feet AGL
Clouds: broken clouds at 1600 feet AGL
overcast cloud deck at 2200 feet AGL
Weather: no significant weather observed at this time

METAR text: EGLL 200650Z AUTO 06002KT 8000 OVC015 01/M00 Q1015
Conditions at: EGLL (LONDON/HEATHROW , GB) observed 0650 UTC 20 January 2019
Temperature: 1.0°C (34°F)
Dewpoint: 0.0°C (32°F) [RH = 93%]
Pressure (altimeter): 29.97 inches Hg (1015.0 mb)
Winds: from the ENE (60 degrees) at 2 MPH (2 knots; 1.0 m/s)
Visibility: 5 miles ( 8 km)
Ceiling: 1500 feet AGL
Clouds: overcast cloud deck at 1500 feet AGL
Weather: no significant weather observed at this time

METAR text: EGLL 200620Z AUTO 04003KT 8000 OVC014 01/M00 Q1014 TEMPO SCT014
Conditions at: EGLL (LONDON/HEATHROW , GB) observed 0620 UTC 20 January 2019
Temperature: 1.0°C (34°F)
Dewpoint: 0.0°C (32°F) [RH = 93%]
Pressure (altimeter): 29.94 inches Hg (1014.0 mb)
Winds: from the NE (40 degrees) at 3 MPH (3 knots; 1.5 m/s)
Visibility: 5 miles ( 8 km)
Ceiling: 1400 feet AGL
Clouds: overcast cloud deck at 1400 feet AGL
Weather: no significant weather observed at this time

METAR text: EGLL 200550Z AUTO VRB02KT 8000 OVC012 01/M00 Q1014
Conditions at: EGLL (LONDON/HEATHROW , GB) observed 0550 UTC 20 January 2019
Temperature: 1.0°C (34°F)
Dewpoint: 0.0°C (32°F) [RH = 93%]
Pressure (altimeter): 29.94 inches Hg (1014.0 mb)
Winds: variable direction winds at 2 MPH (2 knots; 1.0 m/s)
Visibility: 5 miles ( 8 km)
Ceiling: 1200 feet AGL
Clouds: overcast cloud deck at 1200 feet AGL
Weather: no significant weather observed at this time

METAR text: EGLL 200520Z AUTO VRB03KT 7000 BKN011 M00/M01 Q1014 TEMPO SCT011
Conditions at: EGLL (LONDON/HEATHROW , GB) observed 0520 UTC 20 January 2019
Temperature: 0.0°C (32°F)
Dewpoint: -1.0°C (30°F) [RH = 93%]
Pressure (altimeter): 29.94 inches Hg (1014.0 mb)
Winds: variable direction winds at 3 MPH (3 knots; 1.5 m/s)
Visibility: 4 miles ( 7 km)
Ceiling: 1100 feet AGL
Clouds: broken clouds at 1100 feet AGL
Weather: no significant weather observed at this time

METAR text: EGLL 200450Z AUTO 08004KT 030V100 7000 FEW013 M01/M02 Q1013 TEMPO BKN013
Conditions at: EGLL (LONDON/HEATHROW , GB) observed 0450 UTC 20 January 2019
Temperature: -1.0°C (30°F)
Dewpoint: -2.0°C (28°F) [RH = 93%]
Pressure (altimeter): 29.91 inches Hg (1013.0 mb)
Winds: from the E (80 degrees) at 5 MPH (4 knots; 2.1 m/s)
Visibility: 4 miles ( 7 km)
Ceiling: at least 12,000 feet AGL
Clouds: few clouds at 1300 feet AGL
Weather: no significant weather observed at this time

METAR text: EGLL 200420Z AUTO 04003KT 8000 NCD M01/M01 Q1013 NOSIG
Conditions at: EGLL (LONDON/HEATHROW , GB) observed 0420 UTC 20 January 2019
Temperature: -1.0°C (30°F)
Dewpoint: -1.0°C (30°F) [RH = 100%]
Pressure (altimeter): 29.91 inches Hg (1013.0 mb)
Winds: from the NE (40 degrees) at 3 MPH (3 knots; 1.5 m/s)
Visibility: 5 miles ( 8 km)
Ceiling: at least 12,000 feet AGL
Clouds: sky clear below 12,000 feet AGL
Weather: no significant weather observed at this time

METAR text: EGLL 200350Z AUTO 04002KT 8000 NCD M01/M02 Q1013 NOSIG
Conditions at: EGLL (LONDON/HEATHROW , GB) observed 0350 UTC 20 January 2019
Temperature: -1.0°C (30°F)
Dewpoint: -2.0°C (28°F) [RH = 93%]
Pressure (altimeter): 29.91 inches Hg (1013.0 mb)
Winds: from the NE (40 degrees) at 2 MPH (2 knots; 1.0 m/s)
Visibility: 5 miles ( 8 km)
Ceiling: at least 12,000 feet AGL
Clouds: sky clear below 12,000 feet AGL
Weather: no significant weather observed at this time

METAR text: EGLL 200320Z AUTO 02002KT 9000 NCD M01/M02 Q1013
Conditions at: EGLL (LONDON/HEATHROW , GB) observed 0320 UTC 20 January 2019
Temperature: -1.0°C (30°F)
Dewpoint: -2.0°C (28°F) [RH = 93%]
Pressure (altimeter): 29.91 inches Hg (1013.0 mb)
Winds: from the NNE (20 degrees) at 2 MPH (2 knots; 1.0 m/s)
Visibility: 6 miles ( 9 km)
Ceiling: at least 12,000 feet AGL
Clouds: sky clear below 12,000 feet AGL
Weather: no significant weather observed at this time

METAR text: EGLL 200250Z AUTO 01002KT 9000 NCD M00/M01 Q1013
Conditions at: EGLL (LONDON/HEATHROW , GB) observed 0250 UTC 20 January 2019
Temperature: 0.0°C (32°F)
Dewpoint: -1.0°C (30°F) [RH = 93%]
Pressure (altimeter): 29.91 inches Hg (1013.0 mb)
Winds: from the N (10 degrees) at 2 MPH (2 knots; 1.0 m/s)
Visibility: 6 miles ( 9 km)
Ceiling: at least 12,000 feet AGL
Clouds: sky clear below 12,000 feet AGL
Weather: no significant weather observed at this time

METAR text: EGLL 200220Z AUTO VRB02KT 9999 NCD M00/M01 Q1013 NOSIG
Conditions at: EGLL (LONDON/HEATHROW , GB) observed 0220 UTC 20 January 2019
Temperature: 0.0°C (32°F)
Dewpoint: -1.0°C (30°F) [RH = 93%]
Pressure (altimeter): 29.91 inches Hg (1013.0 mb)
Winds: variable direction winds at 2 MPH (2 knots; 1.0 m/s)
Visibility: 6 or more miles (10+ km)
Ceiling: at least 12,000 feet AGL
Clouds: sky clear below 12,000 feet AGL
Weather: no significant weather observed at this time

METAR text: EGLL 200150Z AUTO 04003KT 9999 NCD M00/M02 Q1012
Conditions at: EGLL (LONDON/HEATHROW , GB) observed 0150 UTC 20 January 2019
Temperature: 0.0°C (32°F)
Dewpoint: -2.0°C (28°F) [RH = 86%]
Pressure (altimeter): 29.88 inches Hg (1012.0 mb)
Winds: from the NE (40 degrees) at 3 MPH (3 knots; 1.5 m/s)
Visibility: 6 or more miles (10+ km)
Ceiling: at least 12,000 feet AGL
Clouds: sky clear below 12,000 feet AGL
Weather: no significant weather observed at this time

METAR text: EGLL 200120Z AUTO 03003KT 9999 NCD 01/M01 Q1012
Conditions at: EGLL (LONDON/HEATHROW , GB) observed 0120 UTC 20 January 2019
Temperature: 1.0°C (34°F)
Dewpoint: -1.0°C (30°F) [RH = 86%]
Pressure (altimeter): 29.88 inches Hg (1012.0 mb)
Winds: from the NNE (30 degrees) at 3 MPH (3 knots; 1.5 m/s)
Visibility: 6 or more miles (10+ km)
Ceiling: at least 12,000 feet AGL
Clouds: sky clear below 12,000 feet AGL
Weather: no significant weather observed at this time

METAR text: EGLL 200050Z AUTO 04003KT 9999 NCD 01/M00 Q1012 NOSIG
Conditions at: EGLL (LONDON/HEATHROW , GB) observed 0050 UTC 20 January 2019
Temperature: 1.0°C (34°F)
Dewpoint: 0.0°C (32°F) [RH = 93%]
Pressure (altimeter): 29.88 inches Hg (1012.0 mb)
Winds: from the NE (40 degrees) at 3 MPH (3 knots; 1.5 m/s)
Visibility: 6 or more miles (10+ km)
Ceiling: at least 12,000 feet AGL
Clouds: sky clear below 12,000 feet AGL
Weather: no significant weather observed at this time

METAR text: EGLL 200020Z AUTO 04004KT 9999 FEW017 01/M00 Q1012
Conditions at: EGLL (LONDON/HEATHROW , GB) observed 0020 UTC 20 January 2019
Temperature: 1.0°C (34°F)
Dewpoint: 0.0°C (32°F) [RH = 93%]
Pressure (altimeter): 29.88 inches Hg (1012.0 mb)
Winds: from the NE (40 degrees) at 5 MPH (4 knots; 2.1 m/s)
Visibility: 6 or more miles (10+ km)
Ceiling: at least 12,000 feet AGL
Clouds: few clouds at 1700 feet AGL
Weather: no significant weather observed at this time

METAR text: EGLL 192350Z AUTO 04003KT 9999 BKN017 02/M00 Q1011
Conditions at: EGLL (LONDON/HEATHROW , GB) observed 2350 UTC 19 January 2019
Temperature: 2.0°C (36°F)
Dewpoint: 0.0°C (32°F) [RH = 87%]
Pressure (altimeter): 29.85 inches Hg (1011.0 mb)
Winds: from the NE (40 degrees) at 3 MPH (3 knots; 1.5 m/s)
Visibility: 6 or more miles (10+ km)
Ceiling: 1700 feet AGL
Clouds: broken clouds at 1700 feet AGL
Weather: no significant weather observed at this time

METAR text: EGLL 192320Z AUTO 06002KT 9999 SCT017 02/M00 Q1011 NOSIG
Conditions at: EGLL (LONDON/HEATHROW , GB) observed 2320 UTC 19 January 2019
Temperature: 2.0°C (36°F)
Dewpoint: 0.0°C (32°F) [RH = 87%]
Pressure (altimeter): 29.85 inches Hg (1011.0 mb)
Winds: from the ENE (60 degrees) at 2 MPH (2 knots; 1.0 m/s)
Visibility: 6 or more miles (10+ km)
Ceiling: at least 12,000 feet AGL
Clouds: scattered clouds at 1700 feet AGL
Weather: no significant weather observed at this time

METAR text: EGLL 192250Z AUTO 09003KT 9999 SCT018 03/M00 Q1011 NOSIG
Conditions at: EGLL (LONDON/HEATHROW , GB) observed 2250 UTC 19 January 2019
Temperature: 3.0°C (37°F)
Dewpoint: 0.0°C (32°F) [RH = 81%]
Pressure (altimeter): 29.85 inches Hg (1011.0 mb)
Winds: from the E (90 degrees) at 3 MPH (3 knots; 1.5 m/s)
Visibility: 6 or more miles (10+ km)
Ceiling: at least 12,000 feet AGL
Clouds: scattered clouds at 1800 feet AGL
Weather: no significant weather observed at this time

METAR text: EGLL 192220Z AUTO 11004KT 9999 BKN017 03/00 Q1011 NOSIG
Conditions at: EGLL (LONDON/HEATHROW , GB) observed 2220 UTC 19 January 2019
Temperature: 3.0°C (37°F)
Dewpoint: 0.0°C (32°F) [RH = 81%]
Pressure (altimeter): 29.85 inches Hg (1011.0 mb)
Winds: from the ESE (110 degrees) at 5 MPH (4 knots; 2.1 m/s)
Visibility: 6 or more miles (10+ km)
Ceiling: 1700 feet AGL
Clouds: broken clouds at 1700 feet AGL
Weather: no significant weather observed at this time

METAR text: EGLL 192150Z AUTO 12006KT 9999 OVC016 04/01 Q1011 NOSIG
Conditions at: EGLL (LONDON/HEATHROW , GB) observed 2150 UTC 19 January 2019
Temperature: 4.0°C (39°F)
Dewpoint: 1.0°C (34°F) [RH = 81%]
Pressure (altimeter): 29.85 inches Hg (1011.0 mb)
Winds: from the ESE (120 degrees) at 7 MPH (6 knots; 3.1 m/s)
Visibility: 6 or more miles (10+ km)
Ceiling: 1600 feet AGL
Clouds: overcast cloud deck at 1600 feet AGL
Weather: no significant weather observed at this time

METAR text: EGLL 192120Z AUTO 12007KT 9999 OVC016 04/02 Q1010 NOSIG
Conditions at: EGLL (LONDON/HEATHROW , GB) observed 2120 UTC 19 January 2019
Temperature: 4.0°C (39°F)
Dewpoint: 2.0°C (36°F) [RH = 87%]
Pressure (altimeter): 29.82 inches Hg (1010.0 mb)
Winds: from the ESE (120 degrees) at 8 MPH (7 knots; 3.6 m/s)
Visibility: 6 or more miles (10+ km)
Ceiling: 1600 feet AGL
Clouds: overcast cloud deck at 1600 feet AGL
Weather: no significant weather observed at this time

METAR text: EGLL 192050Z AUTO 11006KT 9999 OVC014 04/02 Q1010 NOSIG
Conditions at: EGLL (LONDON/HEATHROW , GB) observed 2050 UTC 19 January 2019
Temperature: 4.0°C (39°F)
Dewpoint: 2.0°C (36°F) [RH = 87%]
Pressure (altimeter): 29.82 inches Hg (1010.0 mb)
Winds: from the ESE (110 degrees) at 7 MPH (6 knots; 3.1 m/s)
Visibility: 6 or more miles (10+ km)
Ceiling: 1400 feet AGL
Clouds: overcast cloud deck at 1400 feet AGL
Weather: no significant weather observed at this time

METAR text: EGLL 192020Z AUTO 11008KT 9999 OVC013 04/02 Q1010 NOSIG
Conditions at: EGLL (LONDON/HEATHROW , GB) observed 2020 UTC 19 January 2019
Temperature: 4.0°C (39°F)
Dewpoint: 2.0°C (36°F) [RH = 87%]
Pressure (altimeter): 29.82 inches Hg (1010.0 mb)
Winds: from the ESE (110 degrees) at 9 MPH (8 knots; 4.1 m/s)
Visibility: 6 or more miles (10+ km)
Ceiling: 1300 feet AGL
Clouds: overcast cloud deck at 1300 feet AGL
Weather: no significant weather observed at this time

METAR text: EGLL 191950Z AUTO 10008KT 9999 OVC013 04/02 Q1010 NOSIG
Conditions at: EGLL (LONDON/HEATHROW , GB) observed 1950 UTC 19 January 2019
Temperature: 4.0°C (39°F)
Dewpoint: 2.0°C (36°F) [RH = 87%]
Pressure (altimeter): 29.82 inches Hg (1010.0 mb)
Winds: from the E (100 degrees) at 9 MPH (8 knots; 4.1 m/s)
Visibility: 6 or more miles (10+ km)
Ceiling: 1300 feet AGL
Clouds: overcast cloud deck at 1300 feet AGL
Weather: no significant weather observed at this time

METAR text: EGLL 191920Z AUTO 11008KT 9999 BKN013 OVC020 04/02 Q1010 TEMPO SCT013
Conditions at: EGLL (LONDON/HEATHROW , GB) observed 1920 UTC 19 January 2019
Temperature: 4.0°C (39°F)
Dewpoint: 2.0°C (36°F) [RH = 87%]
Pressure (altimeter): 29.82 inches Hg (1010.0 mb)
Winds: from the ESE (110 degrees) at 9 MPH (8 knots; 4.1 m/s)
Visibility: 6 or more miles (10+ km)
Ceiling: 1300 feet AGL
Clouds: broken clouds at 1300 feet AGL
overcast cloud deck at 2000 feet AGL
Weather: no significant weather observed at this time

METAR text: EGLL 191850Z AUTO 10006KT 9999 OVC016 05/03 Q1009 TEMPO BKN012
Conditions at: EGLL (LONDON/HEATHROW , GB) observed 1850 UTC 19 January 2019
Temperature: 5.0°C (41°F)
Dewpoint: 3.0°C (37°F) [RH = 87%]
Pressure (altimeter): 29.79 inches Hg (1009.0 mb)
Winds: from the E (100 degrees) at 7 MPH (6 knots; 3.1 m/s)
Visibility: 6 or more miles (10+ km)
Ceiling: 1600 feet AGL
Clouds: overcast cloud deck at 1600 feet AGL
Weather: no significant weather observed at this time

METAR text: EGLL 191820Z AUTO 10008KT 9000 SCT011 OVC017 05/03 Q1009 TEMPO BKN010
Conditions at: EGLL (LONDON/HEATHROW , GB) observed 1820 UTC 19 January 2019
Temperature: 5.0°C (41°F)
Dewpoint: 3.0°C (37°F) [RH = 87%]
Pressure (altimeter): 29.79 inches Hg (1009.0 mb)
Winds: from the E (100 degrees) at 9 MPH (8 knots; 4.1 m/s)
Visibility: 6 miles ( 9 km)
Ceiling: 1700 feet AGL
Clouds: scattered clouds at 1100 feet AGL
overcast cloud deck at 1700 feet AGL
Weather: no significant weather observed at this time

METAR text: EGLL 191750Z AUTO 11009KT 6000 OVC010 05/03 Q1009
Conditions at: EGLL (LONDON/HEATHROW , GB) observed 1750 UTC 19 January 2019
Temperature: 5.0°C (41°F)
Dewpoint: 3.0°C (37°F) [RH = 87%]
Pressure (altimeter): 29.79 inches Hg (1009.0 mb)
Winds: from the ESE (110 degrees) at 10 MPH (9 knots; 4.6 m/s)
Visibility: 4 miles ( 6 km)
Ceiling: 1000 feet AGL
Clouds: overcast cloud deck at 1000 feet AGL
Weather: no significant weather observed at this time

METAR text: EGLL 191720Z AUTO 10008KT 7000 BKN009 OVC013 05/04 Q1009 NOSIG
Conditions at: EGLL (LONDON/HEATHROW , GB) observed 1720 UTC 19 January 2019
Temperature: 5.0°C (41°F)
Dewpoint: 4.0°C (39°F) [RH = 93%]
Pressure (altimeter): 29.79 inches Hg (1009.0 mb)
Winds: from the E (100 degrees) at 9 MPH (8 knots; 4.1 m/s)
Visibility: 4 miles ( 7 km)
Ceiling: 900 feet AGL
Clouds: broken clouds at 900 feet AGL
overcast cloud deck at 1300 feet AGL
Weather: no significant weather observed at this time

Forecast for: EGLL (LONDON/HEATHROW , GB)
Text: TAF EGLL 210452Z 2106/2212 VRB03KT 3500 BR SCT012
Forecast period: 0600 to 1100 UTC 21 January 2019
Forecast type: FROM: standard forecast or significant change
Winds: variable direction winds at 3 MPH (3 knots; 1.5 m/s)
Visibility: 2.17 miles (3.49 km)
Ceiling: at least 12,000 feet AGL
Clouds: scattered clouds at 1200 feet AGL
Weather: BR  (mist)
Text: TEMPO 2106/2111 5000 HZ BKN012
Forecast period: 0600 to 1100 UTC 21 January 2019
Forecast type: TEMPORARY: The following changes expected for less than half the time period
Visibility: 3 miles (5 km)
Ceiling: 1200 feet AGL
Clouds: broken clouds at 1200 feet AGL
Weather: HZ  (haze)
Text: PROB30
Forecast period: 0600 to 1000 UTC 21 January 2019
Forecast type: TEMPORARY: The following changes expected for less than half the time period
Visibility: missing
Ceiling: 800 feet AGL
Clouds: broken clouds at 800 feet AGL
Weather: no significant weather forecast for this period
Text: TEMPO 2106/2110 BKN008
Forecast period: 1100 to 1700 UTC 21 January 2019
Forecast type: BECOMING: Conditions expected to become as follows by 1400 UTC 21 January 2019
Winds: variable direction winds at 3 MPH (3 knots; 1.5 m/s)
Visibility: 4 miles (7 km)
Ceiling: at least 12,000 feet AGL
Clouds: scattered clouds at 1200 feet AGL
Weather: NSW  (no significant weather)
Text: BECMG 2111/2114 7000 NSW
Forecast period: 1700 UTC 21 January 2019 to 0200 UTC 22 January 2019
Forecast type: BECOMING: Conditions expected to become as follows by 2000 UTC 21 January 2019
Winds: from the S (190 degrees) at 12 MPH (10 knots; 5.1 m/s)
Visibility: 6 or more miles 10+ km)
Ceiling: at least 12,000 feet AGL
Clouds: scattered clouds at 1200 feet AGL
Weather: NSW  (no significant weather)
Text: BECMG 2117/2120 19010KT 9999
Forecast period: 2300 UTC 21 January 2019 to 0500 UTC 22 January 2019
Forecast type: TEMPORARY: The following changes expected for less than half the time period
Visibility: 2.49 miles (4.01 km)
Ceiling: 800 feet AGL
Clouds: broken clouds at 800 feet AGL
Weather: RA  (moderate rain)
Text: TEMPO 2123/2205 4000 RA BKN008
Forecast period: 0200 to 1200 UTC 22 January 2019
Forecast type: BECOMING: Conditions expected to become as follows by 0500 UTC 22 January 2019
Winds: from the W (280 degrees) at 9 MPH (8 knots; 4.1 m/s)
Visibility: 6 or more miles 10+ km)
Ceiling: at least 12,000 feet AGL
Clouds: scattered clouds at 1200 feet AGL
Weather: NSW  (no significant weather)